Rossford, Ohio
Current Conditions -  °F | °C
As of 12:53 PM on Monday 26 Jan 2015 (Local Time) from KTDZ Reporting Station
Clear Clear  
Wind Chill: 12°   Ceiling: Unl
Heat Index: 21°   Visibility: 10mi
Dew Point: 10°   Wind: 7mph
Humidity: 63%   Direction: 10°N
Pressure: 29.92"   Gusts: NA
Location:  41.61°N, 83.56°W
Report Text: KTDZ 261753Z AUTO 01006KT 10SM CLR M06/M12 A2992 RMK AO2 SLP142 T10611122 11061 21111 58009 TSNO
Loading
Personal Weather Stations






























Interactive Weather Map New forecast layout! Learn more

10-Day Weather Forecast

Advertisements
Track Severe Weather on mobile